createdAt,value
2022-09-28T00:00:58.182Z,3.67
2022-09-28T00:03:25.830Z,4.00
2022-09-28T00:05:53.479Z,4.60
2022-09-28T00:08:21.129Z,4.10
2022-09-28T00:10:56.991Z,3.95
2022-09-28T00:13:25.616Z,3.60
2022-09-28T00:16:04.943Z,3.97
2022-09-28T00:18:33.164Z,3.90
2022-09-28T00:23:28.835Z,3.97
2022-09-28T00:25:57.855Z,3.65
2022-09-28T00:28:25.449Z,3.75
2022-09-28T00:30:56.494Z,3.72
2022-09-28T00:33:24.444Z,3.92
2022-09-28T00:35:57.128Z,3.58
2022-09-28T00:38:28.327Z,3.83
2022-09-28T00:40:57.480Z,4.07
2022-09-28T00:43:25.633Z,4.25
2022-09-28T00:45:59.831Z,3.20
2022-09-28T00:48:30.530Z,3.38
2022-09-28T00:51:00.421Z,3.80
2022-09-28T00:53:32.706Z,3.47
2022-09-28T00:56:07.418Z,3.35
2022-09-28T00:58:40.705Z,3.50
2022-09-28T01:01:08.714Z,3.33
2022-09-28T01:03:36.474Z,3.33
2022-09-28T01:06:06.133Z,3.50
2022-09-28T01:08:36.168Z,3.30
2022-09-28T01:11:05.425Z,2.85
2022-09-28T01:13:34.360Z,3.42
2022-09-28T01:16:11.066Z,2.83
2022-09-28T01:18:48.650Z,2.78
2022-09-28T01:21:19.733Z,3.15
2022-09-28T01:24:09.595Z,2.90
2022-09-28T01:27:02.278Z,3.45
2022-09-28T01:29:58.036Z,3.58
2022-09-28T01:32:36.466Z,3.05
2022-09-28T01:35:08.836Z,3.75
2022-09-28T01:37:43.173Z,3.88
2022-09-28T01:40:12.957Z,3.95
2022-09-28T01:42:44.604Z,2.90
2022-09-28T01:45:17.922Z,3.67
2022-09-28T01:47:47.760Z,3.80
2022-09-28T01:50:19.090Z,3.17
2022-09-28T01:52:52.747Z,3.22
2022-09-28T01:55:27.451Z,2.83
2022-09-28T01:58:03.278Z,3.42
2022-09-28T02:00:31.313Z,3.63
2022-09-28T02:03:03.095Z,3.33
2022-09-28T02:05:33.909Z,3.63
2022-09-28T02:08:07.758Z,2.60
2022-09-28T02:10:42.782Z,3.90
2022-09-28T02:15:46.643Z,4.03
2022-09-28T02:18:14.698Z,3.00
2022-09-28T02:20:47.211Z,3.60
2022-09-28T02:23:17.338Z,3.00
2022-09-28T02:25:49.780Z,3.58
2022-09-28T02:28:18.883Z,3.80
2022-09-28T02:30:47.103Z,3.10
2022-09-28T02:35:44.439Z,3.60
2022-09-28T02:38:13.364Z,3.95
2022-09-28T02:40:44.214Z,4.05
2022-09-28T02:43:19.442Z,4.43
2022-09-28T02:45:57.563Z,3.75
2022-09-28T02:48:43.878Z,3.97
2022-09-28T02:51:23.908Z,4.32
2022-09-28T02:54:07.840Z,5.35
2022-09-28T02:56:49.701Z,4.65
2022-09-28T02:59:32.185Z,4.43
2022-09-28T03:02:07.637Z,4.07
2022-09-28T03:04:40.569Z,4.57
2022-09-28T03:07:15.464Z,4.32
2022-09-28T03:09:50.588Z,4.35
2022-09-28T03:12:20.978Z,5.32
2022-09-28T03:14:48.673Z,4.00
2022-09-28T03:17:17.649Z,4.10
2022-09-28T03:19:45.266Z,4.35
2022-09-28T03:22:12.878Z,4.00
2022-09-28T03:24:40.468Z,4.10
2022-09-28T03:27:09.356Z,4.20
2022-09-28T03:29:39.002Z,3.55
2022-09-28T03:32:06.642Z,4.38
2022-09-28T03:34:35.656Z,3.95
2022-09-28T03:37:03.338Z,3.80
2022-09-28T03:39:30.976Z,3.50
2022-09-28T03:42:01.082Z,3.40
2022-09-28T03:44:28.702Z,3.63
2022-09-28T03:46:56.537Z,3.33
2022-09-28T03:49:24.154Z,3.13
2022-09-28T03:51:53.112Z,2.97
2022-09-28T03:54:20.781Z,3.15
2022-09-28T03:56:48.411Z,2.63
2022-09-28T03:59:16.163Z,2.70
2022-09-28T04:01:43.870Z,2.95
2022-09-28T04:04:12.694Z,2.25
2022-09-28T04:06:40.407Z,2.85
2022-09-28T04:09:09.573Z,2.63
2022-09-28T04:11:53.120Z,2.15
2022-09-28T04:14:24.998Z,2.63
2022-09-28T04:16:54.809Z,2.60
2022-09-28T04:19:22.818Z,2.30
2022-09-28T04:21:51.886Z,2.33
2022-09-28T04:24:21.390Z,2.30
2022-09-28T04:26:49.473Z,1.92
2022-09-28T04:29:16.196Z,2.25
2022-09-28T04:31:47.181Z,2.40
2022-09-28T04:34:17.325Z,1.73
2022-09-28T04:36:45.410Z,1.70
2022-09-28T04:39:14.204Z,1.92
2022-09-28T04:41:43.729Z,1.52
2022-09-28T04:44:11.381Z,1.40
2022-09-28T04:46:38.978Z,1.60
2022-09-28T04:49:06.581Z,1.60
2022-09-28T04:51:34.285Z,1.70
2022-09-28T04:54:01.905Z,1.40
2022-09-28T04:56:29.535Z,1.58
2022-09-28T04:58:58.534Z,1.52
2022-09-28T05:01:26.258Z,1.40
2022-09-28T05:03:54.083Z,1.50
2022-09-28T05:06:22.654Z,1.33
2022-09-28T05:08:50.265Z,1.40
2022-09-28T05:11:19.802Z,1.55
2022-09-28T05:13:48.469Z,1.10
2022-09-28T05:16:17.638Z,1.30
2022-09-28T05:18:45.297Z,1.27
2022-09-28T05:21:14.698Z,1.45
2022-09-28T05:23:46.868Z,1.52
2022-09-28T05:26:14.786Z,1.20
2022-09-28T05:28:42.521Z,1.30
2022-09-28T05:31:10.144Z,1.20
2022-09-28T05:33:39.524Z,1.50
2022-09-28T05:36:10.114Z,1.33
2022-09-28T05:38:37.780Z,1.40
2022-09-28T05:41:06.741Z,1.40
2022-09-28T05:43:35.189Z,1.63
2022-09-28T05:46:02.897Z,1.40
2022-09-28T05:48:30.571Z,1.48
2022-09-28T05:50:59.678Z,1.30
2022-09-28T05:53:27.358Z,1.38
2022-09-28T05:55:58.656Z,1.50
2022-09-28T05:58:26.303Z,1.10
2022-09-28T06:00:55.960Z,1.30
2022-09-28T06:03:23.832Z,1.40
2022-09-28T06:05:51.613Z,1.35
2022-09-28T06:08:20.672Z,1.50
2022-09-28T06:10:48.578Z,1.40
2022-09-28T06:13:16.211Z,1.88
2022-09-28T06:15:44.816Z,1.90
2022-09-28T06:18:14.819Z,1.38
2022-09-28T06:20:42.627Z,1.55
2022-09-28T06:23:10.601Z,1.67
2022-09-28T06:25:40.090Z,1.50
2022-09-28T06:28:10.083Z,0.98
2022-09-28T06:30:39.132Z,0.98
2022-09-28T06:33:08.456Z,0.95
2022-09-28T06:35:36.522Z,0.80
2022-09-28T06:38:04.453Z,0.95
2022-09-28T06:40:32.320Z,1.17
2022-09-28T06:43:03.228Z,1.15
2022-09-28T06:45:31.571Z,1.30
2022-09-28T06:48:01.273Z,1.10
2022-09-28T06:50:32.284Z,0.90
2022-09-28T06:53:00.732Z,1.02
2022-09-28T06:55:29.053Z,1.10
2022-09-28T06:58:01.945Z,1.10
2022-09-28T07:00:31.119Z,1.00
2022-09-28T07:02:58.986Z,1.20
2022-09-28T07:05:28.729Z,1.08
2022-09-28T07:07:56.996Z,1.30
2022-09-28T07:10:25.267Z,1.17
2022-09-28T07:12:52.896Z,1.42
2022-09-28T07:15:22.668Z,1.25
2022-09-28T07:17:59.695Z,1.00
2022-09-28T07:20:30.442Z,1.15
2022-09-28T07:23:12.344Z,1.20
2022-09-28T07:25:45.613Z,0.93
2022-09-28T07:28:13.645Z,1.05
2022-09-28T07:30:43.228Z,1.05
2022-09-28T07:33:14.345Z,1.00
2022-09-28T07:35:42.975Z,1.00
2022-09-28T07:38:12.009Z,0.88
2022-09-28T07:40:57.070Z,0.90
2022-09-28T07:43:24.852Z,0.90
2022-09-28T07:45:55.624Z,0.90
2022-09-28T07:48:23.989Z,0.90
2022-09-28T07:50:52.238Z,1.00
2022-09-28T07:53:20.206Z,0.77
2022-09-28T07:55:52.086Z,0.93
2022-09-28T07:58:20.645Z,0.95
2022-09-28T08:00:48.991Z,1.10
2022-09-28T08:03:19.054Z,1.27
2022-09-28T08:05:47.447Z,1.00
2022-09-28T08:08:15.659Z,0.82
2022-09-28T08:10:47.009Z,1.20
2022-09-28T08:13:16.666Z,0.95
2022-09-28T08:15:44.358Z,1.10
2022-09-28T08:18:11.952Z,1.00
2022-09-28T08:20:58.289Z,1.20
2022-09-28T08:23:26.069Z,1.10
2022-09-28T08:25:54.883Z,1.17
2022-09-28T08:28:24.205Z,1.40
2022-09-28T08:30:52.078Z,1.15
2022-09-28T08:35:58.087Z,1.02
2022-09-28T08:38:26.663Z,0.90
2022-09-28T08:41:04.510Z,0.90
2022-09-28T08:43:58.612Z,1.00
2022-09-28T08:46:30.254Z,0.98
2022-09-28T08:51:59.664Z,0.73
2022-09-28T08:54:36.312Z,0.85
2022-09-28T08:57:08.362Z,1.13
2022-09-28T08:59:47.594Z,0.80
2022-09-28T09:02:19.470Z,0.80
2022-09-28T09:04:47.209Z,0.70
2022-09-28T09:07:39.371Z,0.50
2022-09-28T09:10:18.421Z,0.60
2022-09-28T09:12:59.832Z,0.50
2022-09-28T09:15:40.275Z,0.50
2022-09-28T09:18:22.310Z,0.40
2022-09-28T09:20:54.568Z,0.40
2022-09-28T09:23:35.190Z,0.50
2022-09-28T09:26:12.810Z,0.47
2022-09-28T09:29:14.699Z,0.75
2022-09-28T09:31:59.608Z,0.60
2022-09-28T09:34:49.904Z,0.55
2022-09-28T09:37:34.410Z,0.50
2022-09-28T09:40:23.197Z,0.60
2022-09-28T09:43:01.376Z,0.50
2022-09-28T09:45:40.959Z,0.30
2022-09-28T09:48:13.988Z,0.50
2022-09-28T09:50:46.802Z,0.30
2022-09-28T09:53:21.024Z,0.40
2022-09-28T09:55:57.192Z,0.43
2022-09-28T09:58:30.264Z,0.40
2022-09-28T10:01:06.820Z,0.47
2022-09-28T10:03:37.773Z,0.35
2022-09-28T10:06:10.350Z,0.20
2022-09-28T10:08:43.074Z,0.30
2022-09-28T10:11:17.542Z,0.40
2022-09-28T10:13:45.242Z,0.40
2022-09-28T10:18:40.488Z,0.30
2022-09-28T10:23:38.869Z,0.30
2022-09-28T10:26:13.395Z,0.20
2022-09-28T10:28:49.372Z,0.30
2022-09-28T10:31:37.711Z,0.20
2022-09-28T10:34:05.604Z,0.20
2022-09-28T10:36:38.357Z,0.30
2022-09-28T10:39:06.978Z,0.30
2022-09-28T10:41:34.593Z,0.30
2022-09-28T10:46:38.646Z,0.30
2022-09-28T10:49:13.377Z,0.30
2022-09-28T10:51:41.592Z,0.32
2022-09-28T10:54:15.744Z,0.30
2022-09-28T10:56:43.753Z,0.13
2022-09-28T10:59:35.887Z,0.15
2022-09-28T11:02:13.421Z,0.32
2022-09-28T11:04:43.930Z,0.35
2022-09-28T11:07:18.807Z,0.30
2022-09-28T11:09:49.842Z,0.30
2022-09-28T11:12:22.654Z,0.40
2022-09-28T11:14:58.403Z,0.45
2022-09-28T11:17:29.337Z,0.40
2022-09-28T11:19:58.107Z,0.40
2022-09-28T11:22:30.175Z,0.50
2022-09-28T11:25:24.367Z,0.40
2022-09-28T11:28:01.247Z,0.40
2022-09-28T11:30:33.851Z,0.40
2022-09-28T11:33:12.727Z,0.30
2022-09-28T11:35:47.413Z,0.40
2022-09-28T11:38:31.244Z,0.40
2022-09-28T11:41:10.933Z,0.43
2022-09-28T11:44:01.581Z,0.50
2022-09-28T11:46:36.649Z,0.40
2022-09-28T11:49:12.790Z,0.50
2022-09-28T11:51:42.195Z,0.40
2022-09-28T11:54:17.660Z,0.60
2022-09-28T11:56:48.806Z,0.55
2022-09-28T11:59:21.729Z,0.60
2022-09-28T12:01:54.368Z,0.40
2022-09-28T12:04:27.463Z,0.60
2022-09-28T12:07:01.049Z,0.47
2022-09-28T12:09:35.886Z,0.50
2022-09-28T12:12:10.378Z,0.50
2022-09-28T12:14:41.185Z,0.47
2022-09-28T12:17:20.227Z,0.50
2022-09-28T12:19:51.744Z,0.50
2022-09-28T12:22:25.218Z,0.40
2022-09-28T12:24:56.522Z,0.35
2022-09-28T12:27:32.542Z,0.30
2022-09-28T12:30:05.299Z,0.43
2022-09-28T12:32:41.013Z,0.50
2022-09-28T12:35:14.089Z,0.50
2022-09-28T12:38:08.681Z,0.40
2022-09-28T12:40:42.687Z,0.40
2022-09-28T12:43:29.055Z,0.40
2022-09-28T12:46:23.587Z,0.60
2022-09-28T12:52:00.294Z,0.70
2022-09-28T12:54:53.255Z,0.40
2022-09-28T12:57:40.258Z,0.40
2022-09-28T13:00:12.917Z,0.50
2022-09-28T13:03:02.931Z,0.45
2022-09-28T13:06:06.624Z,0.60
2022-09-28T13:08:44.391Z,0.60
2022-09-28T13:11:25.166Z,0.50
2022-09-28T13:14:03.213Z,0.80
2022-09-28T13:16:36.944Z,0.70
2022-09-28T13:19:13.091Z,0.60
2022-09-28T13:21:50.517Z,0.63
2022-09-28T13:24:34.078Z,1.00
2022-09-28T13:27:06.334Z,1.30
2022-09-28T13:29:34.936Z,1.13
2022-09-28T13:32:04.346Z,1.27
2022-09-28T13:34:37.028Z,1.20
2022-09-28T13:37:22.039Z,1.08
2022-09-28T13:39:52.717Z,0.85
2022-09-28T13:42:35.128Z,1.00
2022-09-28T13:45:27.300Z,0.68
2022-09-28T13:48:12.808Z,0.70
2022-09-28T13:51:05.175Z,0.68
2022-09-28T13:53:48.675Z,0.70
2022-09-28T13:56:29.600Z,0.60
2022-09-28T13:59:02.781Z,0.77
2022-09-28T14:01:37.029Z,0.70
2022-09-28T14:04:14.186Z,0.40
2022-09-28T14:06:47.513Z,0.60
2022-09-28T14:09:45.473Z,0.40
2022-09-28T14:12:32.078Z,0.30
2022-09-28T14:15:00.324Z,0.30
2022-09-28T14:18:00.116Z,0.40
2022-09-28T14:20:31.376Z,0.47
2022-09-28T14:23:38.618Z,0.43
2022-09-28T14:26:48.597Z,0.63
2022-09-28T14:29:28.652Z,0.40
2022-09-28T14:31:58.176Z,0.50
2022-09-28T14:34:34.450Z,0.50
2022-09-28T14:37:22.608Z,0.57
2022-09-28T14:40:07.870Z,0.50
2022-09-28T14:42:37.087Z,0.40
2022-09-28T14:45:33.826Z,0.50
2022-09-28T14:48:21.366Z,0.47
2022-09-28T14:50:50.025Z,0.45
2022-09-28T14:53:25.663Z,0.40
2022-09-28T14:55:58.815Z,0.40
2022-09-28T14:58:29.994Z,0.50
2022-09-28T15:01:03.919Z,0.60
2022-09-28T15:03:36.392Z,0.50
2022-09-28T15:06:04.036Z,0.50
2022-09-28T15:08:40.095Z,0.50
2022-09-28T15:11:14.749Z,0.40
2022-09-28T15:13:44.458Z,0.47
2022-09-28T15:16:15.025Z,0.50
2022-09-28T15:19:04.900Z,0.60
2022-09-28T15:21:36.335Z,0.65
2022-09-28T15:24:04.189Z,0.60
2022-09-28T15:29:04.020Z,0.70
2022-09-28T15:31:36.313Z,0.80
2022-09-28T15:34:21.289Z,0.90
2022-09-28T15:36:49.983Z,0.65
2022-09-28T15:39:22.930Z,0.68
2022-09-28T15:41:51.997Z,0.70
2022-09-28T15:44:32.395Z,0.60
2022-09-28T15:47:11.147Z,0.80
2022-09-28T15:49:44.033Z,0.50
2022-09-28T15:52:27.917Z,0.60
2022-09-28T15:54:56.352Z,0.73
2022-09-28T15:57:37.288Z,0.50
2022-09-28T16:00:22.696Z,0.40
2022-09-28T16:03:05.437Z,0.50
2022-09-28T16:05:39.182Z,0.50
2022-09-28T16:08:25.574Z,0.50
2022-09-28T16:10:58.609Z,0.50
2022-09-28T16:13:26.811Z,0.52
2022-09-28T16:16:00.934Z,0.60
2022-09-28T16:18:30.726Z,0.40
2022-09-28T16:21:26.967Z,0.40
2022-09-28T16:23:57.477Z,0.40
2022-09-28T16:26:34.337Z,0.40
2022-09-28T16:29:09.390Z,0.30
2022-09-28T16:31:41.417Z,0.50
2022-09-28T16:34:17.698Z,0.47
2022-09-28T16:36:47.922Z,0.50
2022-09-28T16:39:17.400Z,0.50
2022-09-28T16:41:49.641Z,0.70
2022-09-28T16:44:23.376Z,0.60
2022-09-28T16:46:55.142Z,0.70
2022-09-28T16:49:25.477Z,0.50
2022-09-28T16:51:53.923Z,0.70
2022-09-28T16:54:41.562Z,0.50
2022-09-28T16:57:12.392Z,0.60
2022-09-28T16:59:40.292Z,0.77
2022-09-28T17:05:07.017Z,0.70
2022-09-28T17:07:34.992Z,0.50
2022-09-28T17:12:30.208Z,0.70
2022-09-28T17:14:58.606Z,0.60
2022-09-28T17:17:29.891Z,0.90
2022-09-28T17:19:57.575Z,0.80
2022-09-28T17:22:25.191Z,0.90
2022-09-28T17:24:52.810Z,0.90
2022-09-28T17:27:21.601Z,1.02
2022-09-28T17:29:49.239Z,1.10
2022-09-28T17:32:19.608Z,1.30
2022-09-28T17:35:00.772Z,2.08
2022-09-28T17:37:36.158Z,1.90
2022-09-28T17:40:03.946Z,1.17
2022-09-28T17:42:31.545Z,1.08
2022-09-28T17:44:59.160Z,1.17
2022-09-28T17:47:29.049Z,1.80
2022-09-28T17:50:01.198Z,1.35
2022-09-28T17:52:28.813Z,1.13
2022-09-28T17:54:56.432Z,1.00
2022-09-28T17:57:24.041Z,1.13
2022-09-28T17:59:52.058Z,1.10
2022-09-28T18:04:52.202Z,2.80
2022-09-28T18:07:21.398Z,2.55
2022-09-28T18:09:53.821Z,1.75
2022-09-28T18:12:21.449Z,1.38
2022-09-28T18:14:49.104Z,1.50
2022-09-28T18:17:16.734Z,1.20
2022-09-28T18:19:44.474Z,1.17
2022-09-28T18:22:12.115Z,1.10
2022-09-28T18:24:41.160Z,1.60
2022-09-28T18:27:08.839Z,1.40
2022-09-28T18:29:36.654Z,1.20
2022-09-28T18:32:04.857Z,1.25
2022-09-28T18:34:35.733Z,1.50
2022-09-28T18:37:03.483Z,1.67
2022-09-28T18:39:31.120Z,1.30
2022-09-28T18:42:00.153Z,1.33
2022-09-28T18:44:27.797Z,1.30
2022-09-28T18:46:55.473Z,1.20
2022-09-28T18:49:23.921Z,0.98
2022-09-28T18:51:51.621Z,1.60
2022-09-28T18:54:19.568Z,1.38
2022-09-28T18:59:16.240Z,1.10
2022-09-28T19:01:44.057Z,1.60
2022-09-28T19:04:13.553Z,1.48
2022-09-28T19:06:44.399Z,1.60
2022-09-28T19:09:12.456Z,1.70
2022-09-28T19:11:40.182Z,1.40
2022-09-28T19:14:07.808Z,1.13
2022-09-28T19:16:36.801Z,1.10
2022-09-28T19:19:04.499Z,1.35
2022-09-28T19:21:32.153Z,1.15
2022-09-28T19:24:01.256Z,1.15
2022-09-28T19:26:29.749Z,1.33
2022-09-28T19:28:58.316Z,1.02
2022-09-28T19:31:27.384Z,1.20
2022-09-28T19:33:56.440Z,2.00
2022-09-28T19:36:25.847Z,2.38
2022-09-28T19:38:53.764Z,2.10
2022-09-28T19:41:39.604Z,2.25
2022-09-28T19:44:15.797Z,1.60
2022-09-28T19:46:43.784Z,1.80
2022-09-28T19:52:08.468Z,2.20
2022-09-28T19:54:36.301Z,2.28
2022-09-28T19:57:08.546Z,2.65
2022-09-28T19:59:36.890Z,2.40
2022-09-28T20:02:05.298Z,2.10
2022-09-28T20:04:34.297Z,2.45
2022-09-28T20:07:01.965Z,2.60
2022-09-28T20:09:29.785Z,2.88
2022-09-28T20:11:57.450Z,3.05
2022-09-28T20:14:26.276Z,2.80
2022-09-28T20:16:58.368Z,2.50
2022-09-28T20:19:26.620Z,2.85
2022-09-28T20:22:02.009Z,2.90
2022-09-28T20:24:29.850Z,3.28
2022-09-28T20:26:57.791Z,2.55
2022-09-28T20:29:25.555Z,3.00
2022-09-28T20:31:53.265Z,2.88
2022-09-28T20:34:20.912Z,3.00
2022-09-28T20:36:48.516Z,2.60
2022-09-28T20:39:17.574Z,2.70
2022-09-28T20:41:47.100Z,3.08
2022-09-28T20:44:14.867Z,3.22
2022-09-28T20:46:43.986Z,2.78
2022-09-28T20:49:11.796Z,3.28
2022-09-28T20:51:39.445Z,3.03
2022-09-28T20:54:07.138Z,3.38
2022-09-28T20:56:38.226Z,2.80
2022-09-28T20:59:07.767Z,2.67
2022-09-28T21:01:36.162Z,2.95
2022-09-28T21:04:05.668Z,3.00
2022-09-28T21:06:34.757Z,3.13
2022-09-28T21:09:03.216Z,2.72
2022-09-28T21:11:31.037Z,2.75
2022-09-28T21:14:01.701Z,3.15
2022-09-28T21:16:31.547Z,2.67
2022-09-28T21:18:59.889Z,2.63
2022-09-28T21:21:28.093Z,2.53
2022-09-28T21:23:56.551Z,2.92
2022-09-28T21:26:25.939Z,3.15
2022-09-28T21:28:54.615Z,3.00
2022-09-28T21:31:28.778Z,3.03
2022-09-28T21:36:25.482Z,1.73
2022-09-28T21:41:21.105Z,3.50
2022-09-28T21:43:48.701Z,3.25
2022-09-28T21:46:17.533Z,3.45
2022-09-28T21:48:46.597Z,2.70
2022-09-28T21:51:15.521Z,2.92
2022-09-28T21:53:43.580Z,2.92
2022-09-28T21:56:13.522Z,2.80
2022-09-28T21:58:41.461Z,3.17
2022-09-28T22:01:13.393Z,3.00
2022-09-28T22:03:41.877Z,2.80
2022-09-28T22:06:11.076Z,2.70
2022-09-28T22:08:39.598Z,2.58
2022-09-28T22:11:08.931Z,2.38
2022-09-28T22:13:40.013Z,2.67
2022-09-28T22:16:08.238Z,2.80
2022-09-28T22:18:36.001Z,2.90
2022-09-28T22:21:06.472Z,2.72
2022-09-28T22:23:36.543Z,2.53
2022-09-28T22:26:07.042Z,2.92
2022-09-28T22:28:35.027Z,3.17
2022-09-28T22:31:02.938Z,3.60
2022-09-28T22:33:30.704Z,4.00
2022-09-28T22:35:58.358Z,3.78
2022-09-28T22:38:26.182Z,3.50
2022-09-28T22:40:57.640Z,3.72
2022-09-28T22:43:26.765Z,3.17
2022-09-28T22:46:02.029Z,4.15
2022-09-28T22:48:29.829Z,3.60
2022-09-28T22:50:57.457Z,3.53
2022-09-28T22:53:25.114Z,3.28
2022-09-28T22:55:52.873Z,3.50
2022-09-28T22:58:21.870Z,2.83
2022-09-28T23:00:49.495Z,3.38
2022-09-28T23:03:17.725Z,3.03
2022-09-28T23:05:53.610Z,2.90
2022-09-28T23:08:21.633Z,2.50
2022-09-28T23:10:49.295Z,2.75
2022-09-28T23:13:17.250Z,2.55
2022-09-28T23:15:55.693Z,2.95
2022-09-28T23:18:23.435Z,2.60
2022-09-28T23:20:54.958Z,3.05
2022-09-28T23:23:23.079Z,2.85
2022-09-28T23:25:51.305Z,2.70
2022-09-28T23:30:48.516Z,3.00
2022-09-28T23:33:17.654Z,2.55
2022-09-28T23:35:45.594Z,2.33
2022-09-28T23:38:14.285Z,2.53
2022-09-28T23:40:42.355Z,2.60
2022-09-28T23:43:09.987Z,2.53
2022-09-28T23:45:37.620Z,2.53
2022-09-28T23:48:06.733Z,2.58
2022-09-28T23:50:34.363Z,2.50
2022-09-28T23:53:01.999Z,2.67
2022-09-28T23:55:29.600Z,2.58
2022-09-28T23:57:58.649Z,2.30
